createdAt,value
2017-08-10T00:08:31.000Z,22.75
2017-08-10T00:18:31.000Z,22.73
2017-08-10T00:28:31.000Z,22.71
2017-08-10T00:38:31.000Z,22.69
2017-08-10T00:48:31.000Z,22.67
2017-08-10T00:58:31.000Z,22.62
2017-08-10T01:08:31.000Z,22.61
2017-08-10T01:18:32.000Z,22.58
2017-08-10T01:28:31.000Z,22.56
2017-08-10T01:38:31.000Z,22.54
2017-08-10T01:48:32.000Z,22.51
2017-08-10T01:58:31.000Z,22.5
2017-08-10T02:08:31.000Z,22.47
2017-08-10T02:18:31.000Z,22.45
2017-08-10T02:28:31.000Z,22.42
2017-08-10T02:38:31.000Z,22.39
2017-08-10T02:48:31.000Z,22.37
2017-08-10T02:58:31.000Z,22.36
2017-08-10T03:08:31.000Z,22.33
2017-08-10T03:18:31.000Z,22.31
2017-08-10T03:28:31.000Z,22.29
2017-08-10T03:38:31.000Z,22.27
2017-08-10T03:48:31.000Z,22.26
2017-08-10T03:58:31.000Z,22.23
2017-08-10T04:08:31.000Z,22.21
2017-08-10T04:18:32.000Z,22.2
2017-08-10T04:28:32.000Z,22.18
2017-08-10T04:38:32.000Z,22.17
2017-08-10T04:48:32.000Z,22.17
2017-08-10T04:58:32.000Z,22.16
2017-08-10T05:08:32.000Z,22.16
2017-08-10T05:18:32.000Z,22.14
2017-08-10T05:28:32.000Z,22.15
2017-08-10T05:38:32.000Z,22.17
2017-08-10T05:48:32.000Z,22.17
2017-08-10T05:58:32.000Z,22.18
2017-08-10T06:08:32.000Z,22.21
2017-08-10T06:18:32.000Z,22.25
2017-08-10T06:28:32.000Z,22.27
2017-08-10T06:38:32.000Z,22.39
2017-08-10T06:48:32.000Z,22.37
2017-08-10T06:58:32.000Z,22.36
2017-08-10T07:08:32.000Z,22.32
2017-08-10T07:18:32.000Z,22.3
2017-08-10T07:28:33.000Z,22.32
2017-08-10T07:38:33.000Z,22.3
2017-08-10T07:48:32.000Z,22.29
2017-08-10T07:58:32.000Z,22.28
2017-08-10T08:08:32.000Z,22.28
2017-08-10T08:18:32.000Z,22.29
2017-08-10T08:28:32.000Z,22.33
2017-08-10T08:38:32.000Z,22.36
2017-08-10T08:48:32.000Z,22.39
2017-08-10T08:58:32.000Z,22.43
2017-08-10T09:08:32.000Z,22.53
2017-08-10T09:18:32.000Z,22.75
2017-08-10T09:28:32.000Z,22.91
2017-08-10T09:38:32.000Z,22.91
2017-08-10T09:48:32.000Z,22.97
2017-08-10T09:58:32.000Z,22.95
2017-08-10T10:08:32.000Z,23.15
2017-08-10T10:18:32.000Z,23.14
2017-08-10T10:28:32.000Z,23.2
2017-08-10T10:38:35.000Z,23.3
2017-08-10T10:48:32.000Z,23.31
2017-08-10T10:58:32.000Z,23.31
2017-08-10T11:08:32.000Z,23.31
2017-08-10T11:18:32.000Z,23.24
2017-08-10T11:28:32.000Z,23.25
2017-08-10T11:38:32.000Z,23.33
2017-08-10T11:48:32.000Z,23.37
2017-08-10T11:58:32.000Z,23.4
2017-08-10T12:08:32.000Z,23.42
2017-08-10T12:18:32.000Z,23.48
2017-08-10T12:28:33.000Z,23.51
2017-08-10T12:38:32.000Z,23.48
2017-08-10T12:48:34.000Z,23.58
2017-08-10T12:58:33.000Z,23.56
2017-08-10T13:08:33.000Z,23.6
2017-08-10T13:18:33.000Z,23.6
2017-08-10T13:28:33.000Z,23.6
2017-08-10T13:38:33.000Z,23.58
2017-08-10T13:48:33.000Z,23.55
2017-08-10T13:58:33.000Z,23.55
2017-08-10T14:08:33.000Z,23.58
2017-08-10T14:18:33.000Z,23.54
2017-08-10T14:28:33.000Z,23.52
2017-08-10T14:38:33.000Z,23.5
2017-08-10T14:48:33.000Z,23.52
2017-08-10T14:58:33.000Z,23.53
2017-08-10T15:08:33.000Z,23.56
2017-08-10T15:18:33.000Z,23.54
2017-08-10T15:28:33.000Z,23.49
2017-08-10T15:38:34.000Z,23.47
2017-08-10T15:48:33.000Z,23.43
2017-08-10T15:58:33.000Z,23.44
2017-08-10T16:08:33.000Z,23.44
2017-08-10T16:18:33.000Z,23.42
2017-08-10T16:28:33.000Z,23.43
2017-08-10T16:38:33.000Z,23.47
2017-08-10T16:48:33.000Z,23.46
2017-08-10T16:58:33.000Z,23.51
2017-08-10T17:08:33.000Z,23.47
2017-08-10T17:18:33.000Z,23.42
2017-08-10T17:28:33.000Z,23.39
2017-08-10T17:38:33.000Z,23.38
2017-08-10T17:48:33.000Z,23.35
2017-08-10T17:58:34.000Z,23.31
2017-08-10T18:08:33.000Z,23.32
2017-08-10T18:18:33.000Z,23.29
2017-08-10T18:28:33.000Z,23.19
2017-08-10T18:38:33.000Z,23.21
2017-08-10T18:48:33.000Z,23.2
2017-08-10T18:58:33.000Z,23.17
2017-08-10T19:08:33.000Z,23.1
2017-08-10T19:18:33.000Z,23.14
2017-08-10T19:28:33.000Z,23.06
2017-08-10T19:38:33.000Z,23.08
2017-08-10T19:48:33.000Z,23.01
2017-08-10T19:58:33.000Z,22.95
2017-08-10T20:08:33.000Z,22.97
2017-08-10T20:18:33.000Z,23.03
2017-08-10T20:28:33.000Z,22.96
2017-08-10T20:38:33.000Z,22.86
2017-08-10T20:48:33.000Z,22.89
2017-08-10T20:58:33.000Z,22.9
2017-08-10T21:08:34.000Z,22.82
2017-08-10T21:18:34.000Z,22.81
2017-08-10T21:28:34.000Z,22.79
2017-08-10T21:38:34.000Z,22.75
2017-08-10T21:48:34.000Z,22.75
2017-08-10T21:58:34.000Z,22.75
2017-08-10T22:08:34.000Z,22.76
2017-08-10T22:18:34.000Z,22.74
2017-08-10T22:28:34.000Z,22.67
2017-08-10T22:38:34.000Z,22.67
2017-08-10T22:48:34.000Z,22.66
2017-08-10T22:58:34.000Z,22.65
2017-08-10T23:08:34.000Z,22.63
2017-08-10T23:18:34.000Z,22.56
2017-08-10T23:28:34.000Z,22.54
2017-08-10T23:38:34.000Z,22.5
2017-08-10T23:48:34.000Z,22.43
2017-08-10T23:58:34.000Z,22.39
